Aviation Digital Data Service (ADDS)

Output produced by METARs form (0743 UTC 24 May 2018)
found at http://www.aviationweather.gov/adds/metars/
 
RJSK 240700Z 26009KT 9999 FEW010 SCT013 BKN015 15/11 Q1006
TAF RJSK 240505Z 2406/2512 28010KT 9999 FEW010 SCT020 
     TEMPO 2410/2414 FEW005 BKN008 BKN015 
     BECMG 2412/2414 14005KT 
     TEMPO 2414/2418 4000 BR 
     BECMG 2421/2500 25013KT 
     TEMPO 2506/2512 4000 -SHRA BR FEW005 BKN008 BKN015
       
RJKA 240700Z 33009KT 290V360 9999 FEW030 SCT/// 26/18 Q1008
RJSA 240700Z 26011KT 9999 FEW030 16/04 Q1005
TAF RJSA 240506Z 2406/2512 27008KT 9999 FEW030 
     BECMG 2410/2412 21015KT
       
RJEC 240700Z 32004KT 240V020 9999 FEW030 BKN/// 18/03 Q1002
TAF RJEC 240510Z 2406/2512 30007KT 9999 FEW040 
     BECMG 2411/2413 19013KT 
     TEMPO 2503/2506 FEW008 BKN025 FEW025CB 
     BECMG 2503/2506 30011KT
       
RJFF 240730Z 35008KT CAVOK 24/12 Q1009 RMK A2981
TAF RJFF 240507Z 2406/2512 32010KT 9999 FEW040 
     BECMG 2410/2412 15005KT 
     BECMG 2503/2506 33006KT
       
RJSF 240700Z 34015KT 9999 FEW030 20/10 Q1005
TAF RJSF 240505Z 2406/2512 35015KT 9999 FEW030 SCT050 
     BECMG 2410/2412 01005KT 
     BECMG 2416/2418 14004KT 
     BECMG 2500/2503 20010KT 
     BECMG 2506/2509 35010KT
       
ROTM 240656Z 30011KT 9999 FEW030 FEW250 26/17 A2983 RMK SLP085 STNPR29530 T02560178
TAF ROTM 2403/2503 32011KT 9999 FEW030 SCT240 510005 QNH2986INS 
     BECMG 2406/2408 35008KT 9999 FEW030 SCT040 500000 QNH2981INS 
     BECMG 2418/2420 VRB06KT 9999 FEW020 FEW050 QNH2979INS T28/2404Z T22/2420Z
       
RJCH 240700Z 20004KT 150V250 CAVOK 16/05 Q1003
TAF RJCH 240516Z 2406/2512 18006KT 9999 FEW030 
     BECMG 2406/2408 23005KT 
     TEMPO 2418/2500 22015G28KT 4000 SHRA BR FEW005 BKN008
       
RJSI 240700Z 29014KT 260V320 9999 FEW040 21/08 Q1003
RJOA 240700Z 19004KT 120V250 CAVOK 23/09 Q1008
TAF RJOA 240506Z 2406/2512 30006KT CAVOK
       
RJAH 240712Z 10007KT 070V140 9999 -TSRA FEW012 SCT030CB BKN070 21/14 Q1003 RMK 2CU012 4CB030 6AC070 A2964 VIS W-NW 7KM FBL TS 10KM W-N APCHG STN
TAF AMD RJAH 240726Z 2407/2512 10010KT 8000 FEW008 BKN015 
     TEMPO 2407/2409 3000 TSRA BR FEW005 BKN008 FEW020CB 
     BECMG 2414/2416 22005KT 
     TEMPO 2414/2421 2000 BR 
     BECMG 2500/2503 22016KT 
     BECMG 2509/2512 22006KT
       
ROIG 240700Z 08007KT 9999 SCT021 BKN026 27/22 Q1010
TAF ROIG 240511Z 2406/2512 08010KT 9999 FEW020 SCT035 
     BECMG 2416/2418 18011KT
       
RJOI 240655Z 12006KT 9999 SCT280 23/15 A2977 RMK SLP081 T02330150
TAF RJOI 2403/2503 16008KT 9999 SCT280 QNH2979INS 
     FM240500 18008KT 9999 SCT280 QNH2975INS 
     BECMG 2409/2410 VRB05KT 9999 FEW240 BKN280 QNH2977INS 
     FM241400 31004KT 9999 SCT240 BKN280 QNH2979INS 
     BECMG 2422/2423 06006KT 9999 SCT140 BKN280 QNH2982INS 
     FM250100 14006KT 9999 SCT140 BKN280 QNH2980INS T25/2407Z T14/2421Z
       
RJOW 240700Z 29010KT CAVOK 22/12 Q1008
RJAW 240700Z 24012KT 9999 VCSH FEW010 SCT015 29/26 Q1008 RMK 2CU010 4CU015 A2977
RJOC 240700Z 25017KT CAVOK 23/08 Q1007
TAF RJOC 240506Z 2406/2512 25014KT CAVOK 
     BECMG 2411/2413 17006KT 
     BECMG 2500/2503 25015KT 
     BECMG 2509/2512 17005KT
       
RODN 240656Z AUTO 32010KT 10SM CLR 27/18 A2981 RMK AO2 SLP100 T02670177
TAF RODN 240000Z 2400/2506 34012KT 9999 SCT030 QNH2976INS 
     BECMG 2412/2413 VRB06KT 9999 SCT040 QNH2974INS TX27/2405Z TN22/2421Z
       
RJFK 240700Z 16007KT 130V200 9999 FEW030 SCT/// 28/12 Q1008 RMK 1CU030 A2978 VOLCANIC ASH CLOUD S
TAF RJFK 240505Z 2406/2512 22007KT 9999 FEW030 
     BECMG 2408/2410 33005KT 
     BECMG 2500/2503 20006KT
       
RJBB 240730Z 22006KT CAVOK 23/10 Q1007 NOSIG
TAF RJBB 240505Z 2406/2512 22007KT 9999 FEW030
       
RJTR 240553Z AUTO 18006KT 9SM FEW029 BKN035 21/18 A2964 RMK AO2 LTG DSNT SW RAB16E53 SLP038 $
RJTK 240620Z 19012KT 9999 FEW015 BKN210 23/19 Q1004 RMK 1CU015 5CI210 A2965
RJFR 240700Z 31013KT CAVOK 24/09 Q1008
TAF RJFR 240511Z 2406/2512 31010KT 9999 FEW040 
     BECMG 2411/2413 24003KT 
     BECMG 2418/2421 03005KT 
     BECMG 2500/2503 11005KT
       
RJOK 240700Z 13007KT 9999 FEW035 23/15 Q1007
TAF RJOK 240508Z 2406/2512 15007KT 9999 FEW030 
     BECMG 2410/2412 35007KT 
     BECMG 2500/2503 17005KT 
     BECMG 2509/2512 35006KT
       
RJNK 240700Z 27011KT 240V300 9999 FEW040 19/11 Q1007
TAF RJNK 240505Z 2406/2512 27014KT 9999 FEW015 
     BECMG 2410/2412 18005KT 
     BECMG 2500/2503 24014KT 
     BECMG 2509/2512 18005KT
       
RJFT 240700Z 21008KT 9999 FEW040 BKN/// 27/10 Q1009
TAF RJFT 240506Z 2406/2512 24006KT 9999 FEW030 
     BECMG 2411/2413 06004KT 
     BECMG 2421/2500 23005KT 
     BECMG 2509/2512 07004KT
       
RJCK 240700Z 01012KT 9999 FEW008 FEW025CB BKN030 14/06 Q1002
TAF AMD RJCK 240602Z 2406/2512 03012KT 9999 FEW008 BKN025 
     TEMPO 2406/2410 4000 -TSRA BR FEW008 BKN025 FEW025CB 
     BECMG 2411/2413 31005KT 
     BECMG 2418/2421 20015KT 
     BECMG 2506/2509 05004KT
       
RJAF 240700Z 35011KT 9999 FEW050 22/10 Q1006
RJOM 240700Z 21006KT 9999 FEW025 21/13 Q1008
TAF RJOM 240506Z 2406/2512 23008KT CAVOK 
     BECMG 2407/2409 12006KT 
     BECMG 2421/2500 26006KT 
     BECMG 2509/2512 12004KT
       
RJCM 240700Z 13005KT 9999 -SHRA FEW015 BKN050 09/06 Q1005
TAF RJCM 240518Z 2406/2512 07007KT 9999 FEW020 SCT050 
     TEMPO 2406/2409 FEW010 BKN030 FEW030CB 
     BECMG 2407/2409 19006KT 
     BECMG 2500/2503 05006KT 
     TEMPO 2503/2509 FEW010 BKN030 FEW030CB
       
RJOH 240700Z 27011KT 9999 FEW030 25/04 Q1007
TAF RJOH 240507Z 2406/2512 26011KT 9999 FEW030 
     BECMG 2411/2413 18007KT 
     BECMG 2500/2503 26014KT 
     BECMG 2509/2512 18005KT
       
ROMY 240700Z 03006KT 360V080 CAVOK 27/19 Q1010
RJFM 240700Z 14004KT 090V170 9999 FEW030 25/16 Q1008
TAF RJFM 240507Z 2406/2512 12006KT 9999 FEW030 
     BECMG 2408/2410 26005KT 
     BECMG 2500/2503 11006KT 
     BECMG 2509/2512 26004KT
       
RJEB 240700Z 13007KT 9999 FEW040 SCT090 BKN/// 13/06 Q1004
RJFU 240700Z 34016KT CAVOK 24/16 Q1008
TAF RJFU 240511Z 2406/2512 34007KT CAVOK 
     BECMG 2412/2414 14004KT 
     BECMG 2500/2503 33006KT 
     BECMG 2509/2512 14003KT
       
ROAH 240730Z 35012KT 9999 FEW030 26/17 Q1009 RMK 1CU030 A2980
TAF ROAH 240508Z 2406/2512 02010KT 9999 SCT025 
     BECMG 2503/2506 30004KT 
     BECMG 2506/2509 22005KT
       
RJCN 240700Z 03012KT 9999 FEW030 SCT040 BKN050 11/03 Q1003
RJBD 240700Z 30013KT 9999 FEW040 24/12 Q1006
RJCC 240730Z 35015KT 9999 FEW030 20/01 Q1002 RMK 1CU030 A2960
TAF RJCC 240506Z 2406/2512 35015KT 9999 FEW030 
     BECMG 2412/2414 15013KT 
     TEMPO 2421/2500 4000 -SHRA BR FEW005 BKN008 
     TEMPO 2503/2506 FEW015 BKN030 FEW030CB 
     TEMPO 2506/2509 4000 SHRA BR FEW015 BKN030 FEW030CB 
     BECMG 2506/2509 35010KT
       
RJAA 240730Z 15007KT 110V170 9999 FEW015 FEW030CB 23/18 Q1004 NOSIG RMK 1CU015 1CB030 A2965 CB 40KM NW-N STNR
TAF AMD RJAA 240632Z 2406/2512 12005KT 9999 FEW010 SCT020 
     BECMG 2415/2417 4000 BR 
     TEMPO 2418/2421 1800 BR 
     BECMG 2421/2500 20014KT 9999 NSW
       
RJSN 240700Z 23013KT 9999 FEW030 20/10 Q1007
TAF RJSN 240506Z 2406/2512 28014KT 9999 FEW020 
     BECMG 2408/2410 21006KT 
     BECMG 2412/2414 18008KT 
     BECMG 2421/2500 23010KT
       
RJCB 240731Z 03012KT 4000 R35/0900VP1800U SHRA BR FEW015 BKN020 12/10 Q1001 RMK 1ST015 7CU020 A2959
TAF AMD RJCB 240621Z 2406/2512 35010KT 9999 -SHRA FEW008 BKN025 
     TEMPO 2406/2409 4000 TSRA BR FEW008 BKN025 FEW025CB 
     BECMG 2411/2413 15003KT 
     TEMPO 2415/2421 3000 BR FEW005 BKN008 
     BECMG 2500/2503 33007KT
       
RJSR 240700Z 27010KT 240V310 9999 FEW030 SCT/// 18/09 Q1005
RJFO 240700Z 14005KT 110V190 CAVOK 21/14 Q1008
TAF RJFO 240509Z 2406/2512 16006KT 9999 FEW030
       
RJOB 240700Z 21008KT 150V240 CAVOK 24/08 Q1007
TAF RJOB 240508Z 2406/2512 22007KT CAVOK 
     BECMG 2412/2414 06005KT 
     BECMG 2421/2500 20006KT 
     BECMG 2509/2512 06004KT
       
RJOO 240700Z 23007KT 170V270 CAVOK 25/09 Q1006 RMK A2972
TAF RJOO 240506Z 2406/2512 21007KT 9999 FEW030 
     BECMG 2408/2410 30006KT 
     BECMG 2500/2503 22008KT 
     BECMG 2509/2512 32005KT
       
RJTO 240700Z 28004KT 230V330 9999 FEW025 SCT030 23/17 Q1004
RJFS 240700Z 24007KT CAVOK 27/16 Q1008
TAF RJFS 240510Z 2406/2512 24009KT 9999 FEW040 
     BECMG 2413/2415 01004KT 
     BECMG 2500/2503 21007KT
       
RJSS 240700Z 13009KT 9999 FEW020 20/15 Q1003
TAF RJSS 240505Z 2406/2512 13010KT 9999 FEW040 
     BECMG 2410/2412 27004KT 
     BECMG 2421/2500 16008KT 
     BECMG 2503/2506 26010KT
       
RORS 240700Z 02007KT CAVOK 27/19 Q1010
RJSY 240700Z 27010KT 9999 FEW010 SCT015 BKN020 17/13 Q1007
RJBT 240700Z 36005KT 340V040 CAVOK 21/10 Q1007
RJOT 240700Z 24009KT CAVOK 26/03 Q1008
TAF RJOT 240506Z 2406/2512 18006KT CAVOK 
     BECMG 2500/2503 01005KT 
     BECMG 2509/2512 20006KT
       
RJFG 240700Z 09005KT 040V150 CAVOK 24/14 Q1009
RJTE 240310Z 19004KT 090V170 9999 SCT012 BKN040 23/19 Q1003 RMK 4CU012 6SC040 A2964
RJCT 240704Z 04009G20KT 9999 FEW030 BKN040 BKN100 14/13 Q1001 RMK 1CU030 5CU040 7AC100 A2957
RJTT 240730Z 19012KT 9999 FEW015 24/19 Q1004 NOSIG RMK 1CU015 A2965
TAF AMD RJTT 240555Z 2406/2512 18010KT 9999 FEW020 SCT040 
     TEMPO 2418/2421 4000 BR 
     BECMG 2503/2506 18020KT 
     TEMPO 2503/2509 18022G32KT
       
RJOR 240700Z 31004KT CAVOK 20/12 Q1007
RJNT 240700Z VRB04KT 9999 FEW030 22/13 Q1007
TAF RJNT 240507Z 2406/2512 30005KT 9999 FEW030 
     BECMG 2411/2413 18006KT 
     BECMG 2500/2503 26012KT 
     BECMG 2509/2512 15004KT
       
RJDT 240700Z 27005KT 230V310 CAVOK 25/03 Q1009
RJTU 240225Z 14004KT 9999 FEW020 BKN030 24/16 Q1004 RMK 1CU020 6CU030 A2965
RJCW 240700Z 19010KT 160V230 CAVOK 17/03 Q1002
RJSC 240700Z 02018KT 9999 FEW040 20/14 Q1005
RJDC 240700Z 27013KT CAVOK 25/11 Q1008
RJOY 240700Z 28008KT 230V310 CAVOK 26/12 Q1006
RJTY 240656Z AUTO 20009KT 10SM FEW031 24/18 A2970 RMK AO2 SLPNO T02380180 FZRANO $
TAF RJTY 240500Z 2405/2511 18009KT 9999 FEW020 BKN040 QNH2965INS 
     TEMPO 2405/2406 4800 -TSRA SCT020CB OVC040 
     BECMG 2413/2414 VRB06KT 6000 BR SCT010 QNH2978INS 
     BECMG 2422/2423 18009KT 9999 NSW FEW010 SCT260 QNH2971INS TX27/2505Z TN16/2419Z
       
ROYN 240700Z AUTO 05007KT 9999 FEW023 SCT025 BKN031 28/23 Q1009
RORY 240700Z AUTO 35009KT 9999 FEW030 25/17 Q1009